Time;durP1;ratioP1;P1;durP2;ratioP2;P2;SDS_P1;SDS_P2;PMS_P1;PMS_P2;Temp;Humidity;BMP_temperature;BMP_pressure;BME280_temperature;BME280_humidity;BME280_pressure;Samples;Min_cycle;Max_cycle;Signal;HPM_P1;HPM_P2
2023/12/11 00:17:54;189720.00;0.63;328.23;0.00;0.00;0.62;;;;;14.70;1.00;;;;;;1967752;41;3387;-89
2023/12/11 00:37:43;71963.00;0.24;125.15;0.00;0.00;0.62;;;;;14.60;1.00;;;;;;2279639;55;3771;-86
2023/12/11 00:42:39;274149.00;0.91;473.48;0.00;0.00;0.62;;;;;14.90;1.00;;;;;;2277282;55;3757;-88
2023/12/11 00:47:34;254572.00;0.85;439.81;0.00;0.00;0.62;;;;;15.00;1.00;;;;;;1977460;41;3291;-87
2023/12/11 00:50:01;58308.00;0.19;101.55;0.00;0.00;0.62;;;;;14.90;1.00;;;;;;2313652;55;3758;-90
2023/12/11 00:54:57;494909.00;1.65;853.06;0.00;0.00;0.62;;;;;15.20;1.00;;;;;;2274857;61;1313;-88
2023/12/11 00:57:24;146598.00;0.49;253.94;0.00;0.00;0.62;;;;;15.00;1.00;;;;;;2280049;55;3851;-87
2023/12/11 01:17:17;199679.00;0.67;345.37;0.00;0.00;0.62;;;;;13.40;1.00;;;;;;2276646;61;1294;-89
2023/12/11 01:35:10;435921.00;1.45;751.57;0.00;0.00;0.62;;;;;14.30;1.00;;;;;;2266577;61;1010;-91
2023/12/11 01:40:07;194377.00;0.65;336.24;0.00;0.00;0.62;;;;;14.50;1.00;;;;;;2278578;61;1154;-89
2023/12/11 01:42:35;45405.00;0.15;79.24;0.00;0.00;0.62;;;;;14.50;1.00;;;;;;2277088;61;862;-90
2023/12/11 02:12:20;102272.00;0.34;177.49;0.00;0.00;0.62;;;;;13.90;1.00;;;;;;2003999;55;3543;-90
2023/12/11 02:39:49;372550.00;1.24;642.62;0.00;0.00;0.62;;;;;14.50;1.00;;;;;;2326420;40;3488;-90
2023/12/11 02:44:45;118153.00;0.39;204.90;0.00;0.00;0.62;;;;;14.80;1.00;;;;;;1602967;55;3590;-88
2023/12/11 02:59:41;341405.00;1.14;589.09;0.00;0.00;0.62;;;;;14.20;1.00;;;;;;2269722;61;1227;-89
2023/12/11 03:02:08;7254.00;0.02;13.19;0.00;0.00;0.62;;;;;14.30;1.00;;;;;;2268015;61;942;-90
2023/12/11 03:04:35;0.00;0.00;0.62;0.00;0.00;0.62;;;;;14.40;1.00;;;;;;2277316;55;3745;-90
2023/12/11 03:09:32;34492.00;0.11;60.36;0.00;0.00;0.62;;;;;14.30;1.00;;;;;;2273706;61;1414;-88
2023/12/11 03:16:57;193683.00;0.65;335.05;95284.00;0.32;165.43;;;;;14.60;1.00;;;;;;2286528;55;3697;-89
2023/12/11 03:19:25;166141.00;0.55;287.62;92885.00;0.31;161.29;;;;;14.70;1.00;;;;;;2271832;61;1134;-85
2023/12/11 03:21:55;187953.00;0.63;325.18;83031.00;0.28;144.27;;;;;14.80;1.00;;;;;;2271939;61;1115;-88
2023/12/11 03:24:22;172606.00;0.58;298.76;90094.00;0.30;156.47;;;;;14.80;1.00;;;;;;2271985;61;1428;-88
2023/12/11 03:26:49;218526.00;0.73;377.81;87200.00;0.29;151.47;;;;;14.80;1.00;;;;;;2271928;61;2000;-87
2023/12/11 03:29:16;235815.00;0.79;407.55;87742.00;0.29;152.41;;;;;14.70;1.00;;;;;;2272124;61;2037;-86
2023/12/11 03:31:43;191067.00;0.64;330.55;89486.00;0.30;155.42;;;;;14.60;1.00;;;;;;2271902;61;1038;-87
2023/12/11 03:34:11;200875.00;0.67;347.43;86548.00;0.29;150.35;;;;;14.70;1.00;;;;;;2272062;61;890;-88
2023/12/11 03:36:38;118729296.00;395.76;67797768.00;92519.00;0.31;160.66;;;;;15.00;1.00;;;;;;2271878;61;1393;-89
2023/12/11 03:39:07;356637.00;1.19;615.27;91965.00;0.31;159.70;;;;;15.20;1.00;;;;;;2277962;40;3622;-90
2023/12/11 03:41:34;235258.00;0.78;406.59;87280.00;0.29;151.61;;;;;15.10;1.00;;;;;;2276110;61;2406;-89
2023/12/11 03:44:01;345310.00;1.15;595.80;81451.00;0.27;141.54;;;;;15.30;1.00;;;;;;2276066;61;1033;-87
2023/12/11 03:46:28;183450.00;0.61;317.43;88249.00;0.29;153.28;;;;;15.10;1.00;;;;;;2275137;61;2006;-87
2023/12/11 03:48:55;196521.00;0.66;339.93;92142.00;0.31;160.01;;;;;15.00;1.00;;;;;;2271860;61;909;-88
2023/12/11 03:51:24;194148.00;0.65;335.85;90819.00;0.30;157.72;;;;;14.60;1.00;;;;;;2272015;61;895;-87
2023/12/11 03:53:51;194400.00;0.65;336.28;84619.00;0.28;147.02;;;;;14.30;1.00;;;;;;2272228;61;1063;-89
2023/12/11 03:56:18;201720.00;0.67;348.88;87251.00;0.29;151.56;;;;;14.00;1.00;;;;;;2272640;61;2330;-88
2023/12/11 04:03:48;489121.00;1.63;843.10;76257.00;0.25;132.57;;;;;13.30;1.00;;;;;;2295966;40;3475;-88
2023/12/11 04:06:15;0.00;0.00;0.62;0.00;0.00;0.62;;;;;13.20;1.00;;;;;;2276207;61;2001;-89
2023/12/11 04:08:43;23446.00;0.08;41.24;0.00;0.00;0.62;;;;;13.30;1.00;;;;;;2272768;61;1001;-88
2023/12/11 04:11:11;0.00;0.00;0.62;0.00;0.00;0.62;;;;;13.40;1.00;;;;;;2272593;61;1055;-89
2023/12/11 04:18:41;48063.00;0.16;83.84;0.00;0.00;0.62;;;;;13.60;1.00;;;;;;2248602;61;1158259;-89
2023/12/11 04:23:38;240650.00;0.80;415.87;89611.00;0.30;155.64;;;;;13.40;1.00;;;;;;2274379;61;1376;-88
2023/12/11 04:28:36;265287.00;0.88;458.24;88878.00;0.30;154.37;;;;;13.40;1.00;;;;;;2270293;61;1417;-88
2023/12/11 04:31:03;196775.00;0.66;340.37;79147.00;0.26;137.56;;;;;13.30;1.00;;;;;;2268501;61;1081;-88
2023/12/11 04:33:32;170150.00;0.57;294.52;89682.00;0.30;155.76;;;;;13.30;1.00;;;;;;2268573;61;1028;-87
2023/12/11 04:35:59;245820.00;0.82;424.76;83391.00;0.28;144.89;;;;;13.20;1.00;;;;;;2268462;61;1646;-87
2023/12/11 04:38:26;218781.00;0.73;378.25;89134.00;0.30;154.81;;;;;13.00;1.00;;;;;;2268520;61;1209;-87
2023/12/11 04:40:53;230189.00;0.77;397.87;81629.00;0.27;141.85;;;;;12.90;1.00;;;;;;2278189;40;3601;-85
2023/12/11 04:43:20;271104.00;0.90;468.24;91247.00;0.30;158.46;;;;;12.70;1.00;;;;;;2277354;61;842;-86
2023/12/11 04:45:49;259034.00;0.86;447.49;97449.00;0.32;169.17;;;;;12.60;1.00;;;;;;2277275;61;1543;-88
2023/12/11 04:48:17;290874.00;0.97;502.23;97037.00;0.32;168.46;;;;;12.60;1.00;;;;;;2273533;61;1947;-86
2023/12/11 04:50:44;211381.00;0.70;365.51;94210.00;0.31;163.58;;;;;12.40;1.00;;;;;;2273243;61;1106;-85
2023/12/11 04:58:09;375403.00;1.25;647.52;82152.00;0.27;142.75;;;;;12.60;1.00;;;;;;2271054;61;1320;-87
2023/12/11 05:00:36;271782.00;0.91;469.41;76887.00;0.26;133.66;;;;;12.70;1.00;;;;;;2269147;61;1058;-88
2023/12/11 05:08:09;528865.00;1.76;911.54;86076.00;0.29;149.53;;;;;12.40;1.00;;;;;;2270300;61;1981;-87
2023/12/11 05:10:36;358369.00;1.19;618.25;86430.00;0.29;150.14;;;;;12.50;1.00;;;;;;2268215;61;1088;-88
2023/12/11 05:15:38;786874.00;2.62;1358.24;108242.00;0.36;187.80;;;;;12.80;1.00;;;;;;2046773;59;2730;-87
2023/12/11 05:18:05;698513.00;2.33;1204.66;89066.00;0.30;154.69;;;;;12.90;1.00;;;;;;2268927;61;1285;-86
2023/12/11 05:20:32;652574.00;2.18;1125.09;133659.00;0.45;231.64;;;;;13.00;1.00;;;;;;2268399;61;1128;-89
2023/12/11 05:22:59;732882.00;2.44;1264.31;90648.00;0.30;157.43;;;;;13.00;1.00;;;;;;2268356;61;1459;-87
2023/12/11 05:25:28;596234.00;1.99;1027.72;88278.00;0.29;153.33;;;;;13.10;1.00;;;;;;2268356;61;1622;-88
2023/12/11 05:35:24;875936.00;2.92;1513.89;11157.00;0.04;19.95;;;;;13.30;1.00;;;;;;2274736;61;1310;-89
2023/12/11 05:40:21;622165.00;2.07;1072.51;32200.00;0.11;56.39;;;;;13.30;1.00;;;;;;2285171;55;3775;-87
2023/12/11 06:21:20;408291.00;1.36;704.06;0.00;0.00;0.62;;;;;12.70;1.00;;;;;;1943546;40;3443;-88
2023/12/11 07:18:52;292279.00;0.97;504.65;87362.00;0.29;151.75;;;;;13.60;1.00;;;;;;2269743;61;1397;-89
2023/12/11 07:39:02;964826.00;3.22;1670.27;0.00;0.00;0.62;;;;;14.10;1.00;;;;;;2286387;40;3502;-88
2023/12/11 07:46:30;758351.00;2.53;1308.58;50819.00;0.17;88.60;;;;;14.40;1.00;;;;;;2271422;61;1889;-90
2023/12/11 07:48:57;739560.00;2.47;1275.91;4661.00;0.02;8.70;;;;;14.40;1.00;;;;;;2269348;61;1684;-89
2023/12/11 08:01:31;998741.00;3.33;1730.24;14193.00;0.05;25.21;;;;;14.30;1.00;;;;;;2276736;40;3502;-89
2023/12/11 08:03:59;478231.00;1.59;824.35;20617.00;0.07;36.34;;;;;14.20;1.00;;;;;;2365791;55;3698;-88
2023/12/11 08:09:00;82580.00;0.28;143.49;0.00;0.00;0.62;;;;;13.80;1.00;;;;;;2280964;55;3632;-88
2023/12/11 08:18:56;20406.00;0.07;35.97;0.00;0.00;0.62;;;;;14.20;1.00;;;;;;2278936;55;3648;-89
2023/12/11 08:21:23;18679.00;0.06;32.98;0.00;0.00;0.62;;;;;14.50;1.00;;;;;;2272451;61;1045;-90
2023/12/11 08:23:51;29286.00;0.10;51.35;0.00;0.00;0.62;;;;;14.60;1.00;;;;;;2303250;56;3783;-89
2023/12/11 08:36:21;33257.00;0.11;58.22;0.00;0.00;0.62;;;;;14.80;1.00;;;;;;2270256;61;1357;-89
2023/12/11 08:46:20;151908.00;0.51;263.10;0.00;0.00;0.62;;;;;15.10;1.00;;;;;;2300450;56;3616;-89
2023/12/11 08:48:47;90524.00;0.30;157.21;0.00;0.00;0.62;;;;;15.10;1.00;;;;;;2336308;40;3607;-88
2023/12/11 08:51:14;122676.00;0.41;212.70;0.00;0.00;0.62;;;;;15.30;1.00;;;;;;2293137;39;3763;-91
2023/12/11 08:53:42;130196.00;0.43;225.67;0.00;0.00;0.62;;;;;15.50;1.00;;;;;;2281194;55;3801;-90
2023/12/11 09:11:16;108531.00;0.36;188.30;0.00;0.00;0.62;;;;;15.40;1.00;;;;;;2294576;55;3665;-89
2023/12/11 09:16:13;53153.00;0.18;92.64;0.00;0.00;0.62;;;;;15.70;1.00;;;;;;2270106;61;1406;-89
2023/12/11 09:23:41;206925.00;0.69;357.84;0.00;0.00;0.62;;;;;15.40;1.00;;;;;;2306182;55;3642;-88
2023/12/11 09:31:08;24397.00;0.08;42.88;0.00;0.00;0.62;;;;;15.20;1.00;;;;;;1552351;41;3588;-88
2023/12/11 09:33:36;15061.00;0.05;26.72;0.00;0.00;0.62;;;;;15.00;1.00;;;;;;2288142;40;3585;-90
2023/12/11 09:43:36;225447.00;0.75;389.72;0.00;0.00;0.62;;;;;15.10;1.00;;;;;;2300848;56;3659;-88
2023/12/11 10:01:04;456990.00;1.52;787.81;32470.00;0.11;56.86;;;;;15.70;1.00;;;;;;2282095;41;3452;-88
2023/12/11 10:20:58;49295.00;0.16;85.97;0.00;0.00;0.62;;;;;16.30;1.00;;;;;;2273661;61;1307;-87
2023/12/11 10:23:25;237320.00;0.79;410.14;39537.00;0.13;69.09;;;;;16.50;1.00;;;;;;2279529;56;3754;-88
2023/12/11 10:33:27;216064.00;0.72;373.57;0.00;0.00;0.62;;;;;16.10;1.00;;;;;;2275017;61;1337;-89
2023/12/11 10:45:53;538445.00;1.79;928.04;0.00;0.00;0.62;;;;;16.20;1.00;;;;;;2282622;61;1328;-89
2023/12/11 10:48:20;161867.00;0.54;280.26;0.00;0.00;0.62;;;;;16.10;1.00;;;;;;2277147;61;1921;-89
2023/12/11 10:53:17;488682.00;1.63;842.34;0.00;0.00;0.62;;;;;15.50;1.00;;;;;;2274566;61;1233;-89
2023/12/11 10:55:47;112359.00;0.37;194.90;0.00;0.00;0.62;;;;;15.30;1.00;;;;;;2272741;61;1674;-87
2023/12/11 10:58:14;144853.00;0.48;250.94;0.00;0.00;0.62;;;;;15.20;1.00;;;;;;2284947;55;3866;-89
2023/12/11 11:10:48;357849.00;1.19;617.35;0.00;0.00;0.62;;;;;14.70;1.00;;;;;;1574124;56;3608;-87
2023/12/11 11:18:20;449542.00;1.50;774.99;0.00;0.00;0.62;;;;;14.80;1.00;;;;;;1579978;40;3459;-90
2023/12/11 11:38:53;1314660.00;4.38;2298.96;103836.00;0.35;180.19;;;;;15.00;1.00;;;;;;1870362;40;3185;-89
2023/12/11 11:46:19;1178203.00;3.93;2050.86;0.00;0.00;0.62;;;;;15.10;1.00;;;;;;815932;56;3575;-88
2023/12/11 11:48:46;798251.00;2.66;1378.07;88588.00;0.30;153.87;;;;;14.70;1.00;;;;;;2283539;40;3442;-89
2023/12/11 11:51:12;117418000.00;391.39;65574172.00;88252.00;0.29;153.29;;;;;14.90;1.00;;;;;;2321964;40;3746;-88
2023/12/11 11:53:43;408764.00;1.36;704.87;84714.00;0.28;147.18;;;;;15.20;1.00;;;;;;2302733;55;3740;-87
2023/12/11 11:56:11;345209.00;1.15;595.63;91736.00;0.31;159.31;;;;;15.40;1.00;;;;;;2293447;55;3743;-86
2023/12/11 11:58:38;212480.00;0.71;367.40;85170.00;0.28;147.97;;;;;15.40;1.00;;;;;;2271985;61;1075;-90
2023/12/11 12:01:05;0.00;0.00;0.62;0.00;0.00;0.62;;;;;15.30;1.00;;;;;;2271896;61;1091;-87
2023/12/11 12:03:40;62162.00;0.21;108.21;0.00;0.00;0.62;;;;;15.20;1.00;;;;;;2271913;61;1109;-88
2023/12/11 12:08:36;475797.00;1.59;820.16;0.00;0.00;0.62;;;;;15.20;1.00;;;;;;2273418;61;1965;-89
2023/12/11 12:13:37;121908.00;0.41;211.37;0.00;0.00;0.62;;;;;15.10;1.00;;;;;;825111;40;3431;-88
2023/12/11 12:16:05;31074.00;0.10;54.44;0.00;0.00;0.62;;;;;15.40;1.00;;;;;;2276451;61;1663;-89
2023/12/11 12:18:32;14345.00;0.05;25.48;0.00;0.00;0.62;;;;;15.00;1.00;;;;;;2272661;61;1296;-88
2023/12/11 12:21:04;71248.00;0.24;123.92;0.00;0.00;0.62;;;;;14.90;1.00;;;;;;2272702;61;1723;-89
2023/12/11 12:23:31;191184.00;0.64;330.75;0.00;0.00;0.62;;;;;15.10;1.00;;;;;;2272595;61;1048;-89
2023/12/11 12:28:31;185061.00;0.62;320.20;11106.00;0.04;19.87;;;;;15.10;1.00;;;;;;2270248;61;1964;-89
2023/12/11 12:31:00;81305.00;0.27;141.29;0.00;0.00;0.62;;;;;15.20;1.00;;;;;;2268483;61;1686;-89
2023/12/11 12:33:27;46126.00;0.15;80.49;0.00;0.00;0.62;;;;;15.30;1.00;;;;;;2268589;61;1111;-88
2023/12/11 12:35:55;165231.00;0.55;286.05;0.00;0.00;0.62;;;;;15.40;1.00;;;;;;2283271;56;3722;-91
2023/12/11 12:38:22;90094.00;0.30;156.47;0.00;0.00;0.62;;;;;15.50;1.00;;;;;;2272129;61;1530;-89
2023/12/11 12:40:51;44740.00;0.15;78.09;0.00;0.00;0.62;;;;;15.50;1.00;;;;;;2273466;55;3752;-88
2023/12/11 12:46:02;307530.00;1.03;530.86;0.00;0.00;0.62;;;;;15.50;1.00;;;;;;2277241;61;1376;-88
2023/12/11 12:56:03;786729.00;2.62;1357.99;26750.00;0.09;46.96;;;;;15.20;1.00;;;;;;2274127;61;1276;-88
2023/12/11 13:01:00;551143.00;1.84;949.93;0.00;0.00;0.62;;;;;15.00;1.00;;;;;;1970089;56;3598;-89
2023/12/11 13:08:27;262362.00;0.87;453.21;0.00;0.00;0.62;;;;;14.70;1.00;;;;;;2270451;61;1875;-89
2023/12/11 13:23:27;168111.00;0.56;291.01;0.00;0.00;0.62;;;;;15.10;1.00;;;;;;2273698;61;1404;-89
2023/12/11 13:28:23;527977.00;1.76;910.01;82145.00;0.27;142.74;;;;;14.70;1.00;;;;;;2274546;61;1910;-88
2023/12/11 13:33:19;337494.00;1.12;582.37;42117.00;0.14;73.55;;;;;14.60;1.00;;;;;;2273871;61;1312;-89
2023/12/11 13:35:46;138634.00;0.46;240.22;48697.00;0.16;84.93;;;;;14.20;1.00;;;;;;2282168;55;3754;-87
2023/12/11 13:45:52;538885.00;1.80;928.80;47494.00;0.16;82.85;;;;;13.50;1.00;;;;;;2274066;61;1198;-88
2023/12/11 13:48:19;165967.00;0.55;287.32;0.00;0.00;0.62;;;;;13.60;1.00;;;;;;2284118;41;3616;-87
2023/12/11 13:50:45;176594.00;0.59;305.62;0.00;0.00;0.62;;;;;13.70;1.00;;;;;;2268978;61;1059;-86
2023/12/11 13:53:12;55087.00;0.18;95.98;0.00;0.00;0.62;;;;;13.90;1.00;;;;;;2275261;40;3601;-88
2023/12/11 13:55:39;33941.00;0.11;59.40;0.00;0.00;0.62;;;;;14.10;1.00;;;;;;2272928;61;1055;-90
2023/12/11 13:58:06;166528.00;0.56;288.29;36455.00;0.12;63.75;;;;;14.00;1.00;;;;;;2269544;61;1234;-89
2023/12/11 14:00:33;247331.00;0.82;427.36;0.00;0.00;0.62;;;;;14.00;1.00;;;;;;2268130;61;1080;-88
2023/12/11 14:13:02;119791680.00;399.31;69635752.00;119446824.00;398.16;69035520.00;;;;;13.70;1.00;;;;;;2328260;40;3563;-87
2023/12/11 14:20:35;451829.00;1.51;778.93;128082.00;0.43;222.02;;;;;13.50;1.00;;;;;;2274177;61;1163;-87
2023/12/11 14:23:02;265140.00;0.88;457.99;102235.00;0.34;177.43;;;;;13.50;1.00;;;;;;2272175;61;943;-88
2023/12/11 14:25:29;566250.00;1.89;975.98;160637.00;0.54;278.14;;;;;13.60;1.00;;;;;;2272216;61;1179;-86
2023/12/11 14:30:28;320889.00;1.07;553.83;85522.00;0.29;148.57;;;;;13.60;1.00;;;;;;2273676;61;1408;-88
2023/12/11 14:45:21;121668544.00;405.56;72963520.00;89563.00;0.30;155.55;;;;;13.80;1.00;;;;;;2274512;61;1305;-90
2023/12/11 14:47:50;338927.00;1.13;584.83;90870.00;0.30;157.81;;;;;13.90;1.00;;;;;;2269251;61;1993;-88
2023/12/11 14:50:18;257150.00;0.86;444.25;85025.00;0.28;147.72;;;;;13.90;1.00;;;;;;2268109;61;1115;-89
2023/12/11 15:00:12;580439.00;1.93;1000.46;85717.00;0.29;148.91;;;;;13.60;1.00;;;;;;2273740;61;1447;-89
2023/12/11 15:02:39;441724.00;1.47;761.55;85028.00;0.28;147.72;;;;;13.40;1.00;;;;;;2272181;61;993;-87
2023/12/11 15:05:08;289598.00;0.97;500.04;91344.00;0.30;158.63;;;;;13.30;1.00;;;;;;2272091;61;1004;-87
2023/12/11 15:07:35;281887.00;0.94;486.78;87338.00;0.29;151.71;;;;;13.10;1.00;;;;;;2269547;61;1560;-87
2023/12/11 15:10:03;307970.00;1.03;531.62;90216.00;0.30;156.68;;;;;13.00;1.00;;;;;;2268072;61;1924;-87
2023/12/11 15:12:30;444648.00;1.48;766.58;85926.00;0.29;149.27;;;;;13.00;1.00;;;;;;2268064;61;1603;-88
2023/12/11 15:14:57;405996.00;1.35;700.11;95397.00;0.32;165.63;;;;;13.00;1.00;;;;;;2268071;61;911;-87
2023/12/11 15:17:23;390389.00;1.30;673.28;91111.00;0.30;158.23;;;;;13.00;1.00;;;;;;2268081;61;1371;-87
2023/12/11 15:19:51;376725.00;1.26;649.80;90143.00;0.30;156.55;;;;;13.00;1.00;;;;;;2268133;61;1093;-90
2023/12/11 15:22:19;440362.00;1.47;759.21;89780.00;0.30;155.93;;;;;13.00;1.00;;;;;;2268017;61;1060;-88
2023/12/11 15:24:46;298172.00;0.99;514.78;100284.00;0.33;174.06;;;;;12.90;1.00;;;;;;2268011;61;1615;-87
2023/12/11 15:27:13;191788.00;0.64;331.79;86808.00;0.29;150.80;;;;;12.90;1.00;;;;;;2268087;61;1303;-86
2023/12/11 15:29:40;341051.00;1.14;588.48;84650.00;0.28;147.07;;;;;12.90;1.00;;;;;;2267970;61;1924;-87
2023/12/11 15:32:07;217818.00;0.73;376.59;86349.00;0.29;150.00;;;;;12.80;1.00;;;;;;2268050;61;1248;-87
2023/12/11 15:34:35;237305.00;0.79;410.12;85917.00;0.29;149.26;;;;;12.70;1.00;;;;;;2268033;61;1032;-88
2023/12/11 15:37:04;170142.00;0.57;294.51;90132.00;0.30;156.54;;;;;12.80;1.00;;;;;;2268073;61;1392;-88
2023/12/11 15:39:32;200533.00;0.67;346.84;96870.00;0.32;168.17;;;;;13.00;1.00;;;;;;2268029;61;1068;-87
2023/12/11 15:41:59;381679.00;1.27;658.31;127914.00;0.43;221.73;;;;;13.00;1.00;;;;;;2268024;61;1079;-89
2023/12/11 15:44:25;188644.00;0.63;326.37;89817.00;0.30;155.99;;;;;12.90;1.00;;;;;;2268090;61;979;-89
2023/12/11 15:46:52;447910.00;1.49;772.19;86874.00;0.29;150.91;;;;;12.90;1.00;;;;;;2280849;41;3618;-89
2023/12/11 15:49:19;229124.00;0.76;396.04;85977.00;0.29;149.36;;;;;12.80;1.00;;;;;;2268283;61;2006;-88
2023/12/11 15:51:49;469934.00;1.57;810.08;79045.00;0.26;137.39;;;;;12.70;1.00;;;;;;2268721;61;1107;-86
2023/12/11 15:54:16;205534.00;0.69;355.45;86417.00;0.29;150.12;;;;;12.80;1.00;;;;;;2268855;61;1008;-88
2023/12/11 15:56:45;368958.00;1.23;636.45;87225.00;0.29;151.52;;;;;13.00;1.00;;;;;;2268551;61;1400;-90
2023/12/11 15:59:12;224828.00;0.75;388.65;80442.00;0.27;139.80;;;;;12.80;1.00;;;;;;2268708;61;1140;-87
2023/12/11 16:01:39;435407.00;1.45;750.68;149210.00;0.50;258.45;;;;;12.90;1.00;;;;;;2268750;61;1066;-87
2023/12/11 16:04:06;201215.00;0.67;348.02;96374.00;0.32;167.31;;;;;12.90;1.00;;;;;;2268695;61;1100;-87
2023/12/11 16:06:34;335256.00;1.12;578.52;110037.00;0.37;190.89;;;;;12.90;1.00;;;;;;2268602;61;1290;-88
2023/12/11 16:09:01;220939.00;0.74;381.96;85133.00;0.28;147.90;;;;;13.00;1.00;;;;;;2268727;61;2020;-87
2023/12/11 16:11:32;223875.00;0.75;387.01;81458.00;0.27;141.56;;;;;12.90;1.00;;;;;;2268738;61;1099;-87
2023/12/11 16:14:01;327082.00;1.09;564.47;82609.00;0.28;143.54;;;;;12.80;1.00;;;;;;2268751;61;1256;-87
2023/12/11 16:16:28;369883.00;1.23;638.04;132761.00;0.44;230.09;;;;;12.80;1.00;;;;;;2268707;61;1401;-86
2023/12/11 16:18:54;216380.00;0.72;374.11;92153.00;0.31;160.03;;;;;12.80;1.00;;;;;;2268666;61;1562;-87
2023/12/11 16:21:21;395450.00;1.32;681.98;84994.00;0.28;147.66;;;;;12.70;1.00;;;;;;2268721;61;1092;-86
2023/12/11 16:23:50;182931.00;0.61;316.54;86614.00;0.29;150.46;;;;;12.70;1.00;;;;;;2268625;61;1550;-87
2023/12/11 16:26:17;410443.00;1.37;707.76;114147.00;0.38;197.99;;;;;12.80;1.00;;;;;;2268694;61;1297;-88
2023/12/11 16:28:44;355632.00;1.19;613.54;115881.00;0.39;200.98;;;;;12.80;1.00;;;;;;2268590;61;2375;-87
2023/12/11 16:31:20;203534.00;0.68;352.01;71970.00;0.24;125.16;;;;;12.90;1.00;;;;;;2268612;61;1036;-88
2023/12/11 16:33:47;450674.00;1.50;776.94;82947.00;0.28;144.13;;;;;13.00;1.00;;;;;;2268742;61;1098;-88
2023/12/11 16:36:13;414556.00;1.38;714.83;86950.00;0.29;151.04;;;;;12.90;1.00;;;;;;2268604;61;1400;-88
2023/12/11 16:38:40;369111.00;1.23;636.71;86272.00;0.29;149.87;;;;;13.00;1.00;;;;;;2268650;61;1090;-88
2023/12/11 16:41:07;479409.00;1.60;826.38;87757.00;0.29;152.43;;;;;13.10;1.00;;;;;;2268557;61;1659;-86
2023/12/11 16:43:34;117397696.00;391.33;65540120.00;83841.00;0.28;145.67;;;;;13.10;1.00;;;;;;2268554;61;1134;-87
2023/12/11 16:46:01;442835.00;1.48;763.46;88498.00;0.29;153.71;;;;;13.20;1.00;;;;;;2268502;61;2220;-89
2023/12/11 16:48:30;383957.00;1.28;662.23;87152.00;0.29;151.39;;;;;13.30;1.00;;;;;;2322997;40;3668;-87
2023/12/11 16:50:57;259381.00;0.86;448.08;89103.00;0.30;154.76;;;;;13.20;1.00;;;;;;2272652;61;1059;-88
2023/12/11 16:53:24;225292.00;0.75;389.45;112044.00;0.37;194.36;;;;;13.20;1.00;;;;;;2272544;61;1098;-88
2023/12/11 16:55:51;207471.00;0.69;358.78;61163.00;0.20;106.49;;;;;13.10;1.00;;;;;;2272611;61;1111;-89
2023/12/11 17:00:49;548614.00;1.83;945.57;85123.00;0.28;147.89;;;;;13.30;1.00;;;;;;2275105;61;1401;-87
2023/12/11 17:03:16;209806.00;0.70;362.80;89587.00;0.30;155.59;;;;;13.40;1.00;;;;;;2272675;61;1063;-88
2023/12/11 17:05:44;202583.00;0.68;350.37;99154.00;0.33;172.11;;;;;13.30;1.00;;;;;;2272576;61;1537;-88
2023/12/11 17:08:11;206048.00;0.69;356.33;85371.00;0.28;148.31;;;;;13.30;1.00;;;;;;2269106;61;1304;-88
2023/12/11 17:10:38;231752.00;0.77;400.56;92192.00;0.31;160.09;;;;;13.30;1.00;;;;;;2268473;61;1932;-88
2023/12/11 17:13:05;202129.00;0.67;349.59;87001.00;0.29;151.13;;;;;13.40;1.00;;;;;;2268561;61;1130;-89
2023/12/11 17:15:32;313222.00;1.04;540.65;120574.00;0.40;209.07;;;;;13.30;1.00;;;;;;2268525;61;994;-87
2023/12/11 17:20:28;131096.00;0.44;227.22;41145.00;0.14;71.87;;;;;13.10;1.00;;;;;;2278364;61;1436;-88
2023/12/11 17:22:56;197102.00;0.66;340.94;28339.00;0.09;49.71;;;;;12.90;1.00;;;;;;2276480;61;1086;-88
2023/12/11 17:25:24;14535.00;0.05;25.81;0.00;0.00;0.62;;;;;12.80;1.00;;;;;;2276532;61;1084;-89
2023/12/11 17:27:51;298815.00;1.00;515.88;32742.00;0.11;57.33;;;;;12.80;1.00;;;;;;2273365;61;1626;-88
2023/12/11 17:30:19;103468.00;0.34;179.56;0.00;0.00;0.62;;;;;12.80;1.00;;;;;;2272475;61;1919;-88
2023/12/11 17:32:46;28988.00;0.10;50.83;0.00;0.00;0.62;;;;;12.70;1.00;;;;;;2272372;61;1105;-87
2023/12/11 17:35:13;230171.00;0.77;397.84;0.00;0.00;0.62;;;;;12.70;1.00;;;;;;2272440;61;1025;-87
2023/12/11 17:37:40;0.00;0.00;0.62;0.00;0.00;0.62;;;;;13.00;1.00;;;;;;2272330;61;1465;-88
2023/12/11 17:40:10;27509.00;0.09;48.27;0.00;0.00;0.62;;;;;13.10;1.00;;;;;;2272421;61;1067;-88
2023/12/11 17:42:36;21680.00;0.07;38.18;0.00;0.00;0.62;;;;;13.10;1.00;;;;;;2272271;61;1520;-89
2023/12/11 17:45:04;25956.00;0.09;45.58;0.00;0.00;0.62;;;;;13.10;1.00;;;;;;2272376;61;1601;-89
2023/12/11 17:47:31;105155.00;0.35;182.47;0.00;0.00;0.62;;;;;13.40;1.00;;;;;;2296546;56;3732;-88
2023/12/11 17:49:58;116334.00;0.39;201.76;0.00;0.00;0.62;;;;;13.40;1.00;;;;;;2299533;40;3612;-87
2023/12/11 17:52:25;52166.00;0.17;90.93;0.00;0.00;0.62;;;;;13.20;1.00;;;;;;2277055;61;922;-86
2023/12/11 17:57:28;150869.00;0.50;261.31;0.00;0.00;0.62;;;;;13.20;1.00;;;;;;2218164;40;3531;-89
2023/12/11 17:59:55;243102.00;0.81;420.09;9693.00;0.03;17.42;;;;;13.10;1.00;;;;;;2271933;61;1331;-88
2023/12/11 18:07:20;425800.00;1.42;734.16;37133.00;0.12;64.93;;;;;12.50;1.00;;;;;;2276010;61;1418;-88
2023/12/11 18:09:49;178991.00;0.60;309.75;45098.00;0.15;78.71;;;;;12.30;1.00;;;;;;2272188;61;1911;-86
2023/12/11 18:22:31;218938.00;0.73;378.52;0.00;0.00;0.62;;;;;12.20;1.00;;;;;;2277300;40;3467;-88
2023/12/11 18:24:58;390283.00;1.30;673.10;84259.00;0.28;146.39;;;;;12.50;1.00;;;;;;2276279;61;1040;-87
2023/12/11 18:27:25;536563.00;1.79;924.80;116448.00;0.39;201.95;;;;;12.70;1.00;;;;;;2285950;40;3613;-86
2023/12/11 18:29:52;160739.00;0.54;278.31;0.00;0.00;0.62;;;;;13.00;1.00;;;;;;2272130;55;3584;-88
2023/12/11 18:32:18;136490.00;0.45;236.52;0.00;0.00;0.62;;;;;13.00;1.00;;;;;;2272905;61;1447;-87
2023/12/11 18:34:45;0.00;0.00;0.62;0.00;0.00;0.62;;;;;13.20;1.00;;;;;;2272209;61;1060;-87
2023/12/11 18:37:12;79255.00;0.26;137.75;0.00;0.00;0.62;;;;;13.10;1.00;;;;;;2270546;61;1314;-86
2023/12/11 18:39:40;70300.00;0.23;122.28;0.00;0.00;0.62;;;;;12.90;1.00;;;;;;2272768;55;3756;-87
2023/12/11 18:42:07;155696.00;0.52;269.62;43386.00;0.14;75.75;;;;;13.10;1.00;;;;;;2272254;61;1044;-88
2023/12/11 18:44:34;72242.00;0.24;125.63;0.00;0.00;0.62;;;;;13.20;1.00;;;;;;2272249;61;1058;-87
2023/12/11 18:47:01;286643.00;0.96;494.96;48166.00;0.16;84.01;;;;;13.10;1.00;;;;;;2270800;61;1288;-88
2023/12/11 18:49:28;149265.00;0.50;258.54;32572.00;0.11;57.03;;;;;13.10;1.00;;;;;;2268244;61;1911;-90
2023/12/11 18:51:55;8439.00;0.03;15.24;0.00;0.00;0.62;;;;;13.20;1.00;;;;;;2268236;61;1074;-89
2023/12/11 18:54:22;69201.00;0.23;120.38;0.00;0.00;0.62;;;;;13.20;1.00;;;;;;2267890;61;1135;-89
2023/12/11 18:56:51;0.00;0.00;0.62;0.00;0.00;0.62;;;;;13.20;1.00;;;;;;2268140;61;1350;-88
2023/12/11 18:59:18;174702.00;0.58;302.37;31457.00;0.10;55.10;;;;;13.00;1.00;;;;;;2275370;55;3740;-88
2023/12/11 19:01:45;210792.00;0.70;364.50;0.00;0.00;0.62;;;;;12.90;1.00;;;;;;2272106;61;1050;-89
2023/12/11 19:04:11;145239.00;0.48;251.60;0.00;0.00;0.62;;;;;13.00;1.00;;;;;;2272348;61;1025;-88
2023/12/11 19:09:09;38640.00;0.13;67.54;0.00;0.00;0.62;;;;;13.30;1.00;;;;;;2278074;55;3630;-87
2023/12/11 19:11:36;6364.00;0.02;11.65;0.00;0.00;0.62;;;;;13.60;1.00;;;;;;2272074;61;1648;-87
2023/12/11 19:14:04;104228.00;0.35;180.87;0.00;0.00;0.62;;;;;13.80;1.00;;;;;;2272186;61;1076;-88
2023/12/11 19:16:31;42208.00;0.14;73.71;0.00;0.00;0.62;;;;;13.90;1.00;;;;;;2271537;61;1275;-86
2023/12/11 19:18:57;75395.00;0.25;131.08;0.00;0.00;0.62;;;;;14.00;1.00;;;;;;2268082;61;1016;-89
2023/12/11 19:21:24;144893.00;0.48;251.01;0.00;0.00;0.62;;;;;14.00;1.00;;;;;;2268118;61;1034;-87
2023/12/11 19:23:51;25696.00;0.09;45.13;0.00;0.00;0.62;;;;;14.00;1.00;;;;;;2268105;61;1095;-87